sensor_id;sensor_type;location;lat;lon;timestamp;pressure;altitude;pressure_sealevel;temperature;humidity
11621;BME280;5866;49.094;11.900;2023-08-31T00:01:00;95645.59;;;15.08;100.00
11621;BME280;5866;49.094;11.900;2023-08-31T00:03:30;95651.97;;;15.07;100.00
11621;BME280;5866;49.094;11.900;2023-08-31T00:06:01;95651.47;;;14.71;100.00
11621;BME280;5866;49.094;11.900;2023-08-31T00:08:29;95662.47;;;14.42;100.00
11621;BME280;5866;49.094;11.900;2023-08-31T00:10:58;95656.69;;;14.32;100.00
11621;BME280;5866;49.094;11.900;2023-08-31T00:13:27;95648.56;;;14.53;100.00
11621;BME280;5866;49.094;11.900;2023-08-31T00:15:56;95643.28;;;13.91;100.00
11621;BME280;5866;49.094;11.900;2023-08-31T00:18:25;95631.19;;;13.89;100.00
11621;BME280;5866;49.094;11.900;2023-08-31T00:20:53;95629.31;;;13.48;100.00
11621;BME280;5866;49.094;11.900;2023-08-31T00:23:22;95628.28;;;13.84;100.00
11621;BME280;5866;49.094;11.900;2023-08-31T00:25:52;95625.91;;;14.36;100.00
11621;BME280;5866;49.094;11.900;2023-08-31T00:28:20;95621.38;;;14.30;100.00
11621;BME280;5866;49.094;11.900;2023-08-31T00:30:47;95628.56;;;14.29;100.00
11621;BME280;5866;49.094;11.900;2023-08-31T00:33:16;95624.72;;;14.58;100.00
11621;BME280;5866;49.094;11.900;2023-08-31T00:35:44;95626.63;;;14.17;100.00
11621;BME280;5866;49.094;11.900;2023-08-31T00:38:12;95622.25;;;14.50;100.00
11621;BME280;5866;49.094;11.900;2023-08-31T00:40:42;95607.13;;;14.64;100.00
11621;BME280;5866;49.094;11.900;2023-08-31T00:43:13;95609.59;;;14.18;100.00
11621;BME280;5866;49.094;11.900;2023-08-31T00:45:43;95613.72;;;14.27;100.00
11621;BME280;5866;49.094;11.900;2023-08-31T00:48:11;95617.09;;;14.42;100.00
11621;BME280;5866;49.094;11.900;2023-08-31T00:50:39;95604.69;;;14.82;100.00
11621;BME280;5866;49.094;11.900;2023-08-31T00:53:07;95598.53;;;15.34;100.00
11621;BME280;5866;49.094;11.900;2023-08-31T00:55:36;95604.91;;;15.33;100.00
11621;BME280;5866;49.094;11.900;2023-08-31T00:58:05;95603.28;;;15.45;100.00
11621;BME280;5866;49.094;11.900;2023-08-31T01:00:42;95610.66;;;15.36;100.00
11621;BME280;5866;49.094;11.900;2023-08-31T01:03:13;95615.59;;;15.20;100.00
11621;BME280;5866;49.094;11.900;2023-08-31T01:05:52;95622.78;;;15.19;100.00
11621;BME280;5866;49.094;11.900;2023-08-31T01:08:31;95630.38;;;15.09;100.00
11621;BME280;5866;49.094;11.900;2023-08-31T01:11:07;95622.59;;;15.07;100.00
11621;BME280;5866;49.094;11.900;2023-08-31T01:13:41;95630.34;;;14.76;100.00
11621;BME280;5866;49.094;11.900;2023-08-31T01:16:12;95637.69;;;14.61;100.00
11621;BME280;5866;49.094;11.900;2023-08-31T01:18:41;95631.75;;;14.79;100.00
11621;BME280;5866;49.094;11.900;2023-08-31T01:21:16;95646.53;;;14.75;100.00
11621;BME280;5866;49.094;11.900;2023-08-31T01:23:50;95645.31;;;14.71;100.00
11621;BME280;5866;49.094;11.900;2023-08-31T01:26:20;95653.09;;;14.59;100.00
11621;BME280;5866;49.094;11.900;2023-08-31T01:28:48;95649.66;;;14.91;100.00
11621;BME280;5866;49.094;11.900;2023-08-31T01:31:16;95651.47;;;14.71;100.00
11621;BME280;5866;49.094;11.900;2023-08-31T01:33:44;95655.88;;;14.38;100.00
11621;BME280;5866;49.094;11.900;2023-08-31T01:36:17;95646.19;;;15.04;100.00
11621;BME280;5866;49.094;11.900;2023-08-31T01:38:54;95642.69;;;14.97;100.00
11621;BME280;5866;49.094;11.900;2023-08-31T01:41:23;95653.78;;;15.00;100.00
11621;BME280;5866;49.094;11.900;2023-08-31T01:43:53;95656.41;;;14.81;100.00
11621;BME280;5866;49.094;11.900;2023-08-31T01:46:21;95658.84;;;14.69;100.00
11621;BME280;5866;49.094;11.900;2023-08-31T01:48:49;95649.88;;;14.96;100.00
11621;BME280;5866;49.094;11.900;2023-08-31T01:51:16;95646.56;;;14.81;100.00
11621;BME280;5866;49.094;11.900;2023-08-31T01:53:44;95652.13;;;14.86;100.00
11621;BME280;5866;49.094;11.900;2023-08-31T01:56:13;95650.69;;;14.90;100.00
11621;BME280;5866;49.094;11.900;2023-08-31T01:58:41;95656.03;;;14.90;100.00
11621;BME280;5866;49.094;11.900;2023-08-31T02:01:08;95657.59;;;14.59;100.00
11621;BME280;5866;49.094;11.900;2023-08-31T02:03:36;95660.06;;;14.67;100.00
11621;BME280;5866;49.094;11.900;2023-08-31T02:06:04;95659.25;;;14.66;100.00
11621;BME280;5866;49.094;11.900;2023-08-31T02:08:32;95658.28;;;14.93;100.00
11621;BME280;5866;49.094;11.900;2023-08-31T02:10:59;95660.97;;;14.93;100.00
11621;BME280;5866;49.094;11.900;2023-08-31T02:13:29;95661.72;;;14.61;100.00
11621;BME280;5866;49.094;11.900;2023-08-31T02:15:57;95663.78;;;14.66;100.00
11621;BME280;5866;49.094;11.900;2023-08-31T02:18:25;95663.97;;;14.64;100.00
11621;BME280;5866;49.094;11.900;2023-08-31T02:20:52;95651.69;;;14.76;100.00
11621;BME280;5866;49.094;11.900;2023-08-31T02:23:20;95660.91;;;14.67;100.00
11621;BME280;5866;49.094;11.900;2023-08-31T02:25:47;95650.69;;;14.90;100.00
11621;BME280;5866;49.094;11.900;2023-08-31T02:28:15;95662.97;;;14.72;100.00
11621;BME280;5866;49.094;11.900;2023-08-31T02:30:45;95669.16;;;14.72;100.00
11621;BME280;5866;49.094;11.900;2023-08-31T02:33:13;95661.28;;;14.64;100.00
11621;BME280;5866;49.094;11.900;2023-08-31T02:35:42;95653.13;;;14.85;100.00
11621;BME280;5866;49.094;11.900;2023-08-31T02:38:09;95651.69;;;14.76;100.00
11621;BME280;5866;49.094;11.900;2023-08-31T02:40:37;95659.72;;;14.83;100.00
11621;BME280;5866;49.094;11.900;2023-08-31T02:43:05;95655.25;;;15.03;100.00
11621;BME280;5866;49.094;11.900;2023-08-31T02:45:32;95664.06;;;14.90;100.00
11621;BME280;5866;49.094;11.900;2023-08-31T02:48:01;95662.19;;;14.84;100.00
11621;BME280;5866;49.094;11.900;2023-08-31T02:50:30;95667.06;;;14.61;100.00
11621;BME280;5866;49.094;11.900;2023-08-31T02:52:57;95670.94;;;14.59;100.00
11621;BME280;5866;49.094;11.900;2023-08-31T02:55:25;95668.69;;;14.56;100.00
11621;BME280;5866;49.094;11.900;2023-08-31T02:57:54;95679.59;;;14.67;100.00
11621;BME280;5866;49.094;11.900;2023-08-31T03:00:21;95678.44;;;14.36;100.00
11621;BME280;5866;49.094;11.900;2023-08-31T03:02:49;95682.38;;;14.46;100.00
11621;BME280;5866;49.094;11.900;2023-08-31T03:05:19;95682.47;;;14.25;100.00
11621;BME280;5866;49.094;11.900;2023-08-31T03:07:48;95682.25;;;14.20;100.00
11621;BME280;5866;49.094;11.900;2023-08-31T03:10:15;95683.00;;;14.48;100.00
11621;BME280;5866;49.094;11.900;2023-08-31T03:12:43;95686.03;;;14.32;100.00
11621;BME280;5866;49.094;11.900;2023-08-31T03:15:11;95694.53;;;14.55;100.00
11621;BME280;5866;49.094;11.900;2023-08-31T03:17:38;95692.81;;;14.41;100.00
11621;BME280;5866;49.094;11.900;2023-08-31T03:20:07;95694.38;;;14.63;100.00
11621;BME280;5866;49.094;11.900;2023-08-31T03:22:36;95695.69;;;14.40;100.00
11621;BME280;5866;49.094;11.900;2023-08-31T03:25:04;95694.03;;;14.32;100.00
11621;BME280;5866;49.094;11.900;2023-08-31T03:27:31;95702.38;;;14.63;100.00
11621;BME280;5866;49.094;11.900;2023-08-31T03:29:59;95700.56;;;14.70;100.00
11621;BME280;5866;49.094;11.900;2023-08-31T03:32:27;95698.69;;;14.71;100.00
11621;BME280;5866;49.094;11.900;2023-08-31T03:34:54;95697.84;;;14.57;100.00
11621;BME280;5866;49.094;11.900;2023-08-31T03:37:22;95703.56;;;14.54;100.00
11621;BME280;5866;49.094;11.900;2023-08-31T03:39:51;95704.69;;;14.32;100.00
11621;BME280;5866;49.094;11.900;2023-08-31T03:42:18;95702.25;;;14.37;100.00
11621;BME280;5866;49.094;11.900;2023-08-31T03:44:46;95701.50;;;14.56;100.00
11621;BME280;5866;49.094;11.900;2023-08-31T03:47:13;95704.00;;;14.64;100.00
11621;BME280;5866;49.094;11.900;2023-08-31T03:49:41;95718.50;;;14.96;100.00
11621;BME280;5866;49.094;11.900;2023-08-31T03:52:09;95698.41;;;15.20;100.00
11621;BME280;5866;49.094;11.900;2023-08-31T03:54:36;95701.69;;;15.15;100.00
11621;BME280;5866;49.094;11.900;2023-08-31T03:57:05;95703.72;;;15.06;100.00
11621;BME280;5866;49.094;11.900;2023-08-31T03:59:33;95712.72;;;14.86;100.00
11621;BME280;5866;49.094;11.900;2023-08-31T04:02:00;95715.22;;;15.00;100.00
11621;BME280;5866;49.094;11.900;2023-08-31T04:04:28;95721.41;;;15.01;100.00
11621;BME280;5866;49.094;11.900;2023-08-31T04:06:56;95720.84;;;15.32;100.00
11621;BME280;5866;49.094;11.900;2023-08-31T04:09:23;95717.69;;;15.08;100.00
11621;BME280;5866;49.094;11.900;2023-08-31T04:11:51;95736.22;;;15.23;100.00
11621;BME280;5866;49.094;11.900;2023-08-31T04:14:20;95735.41;;;15.16;100.00
11621;BME280;5866;49.094;11.900;2023-08-31T04:16:47;95730.97;;;15.43;100.00
11621;BME280;5866;49.094;11.900;2023-08-31T04:19:16;95734.63;;;15.29;100.00
11621;BME280;5866;49.094;11.900;2023-08-31T04:21:44;95735.59;;;15.14;100.00
11621;BME280;5866;49.094;11.900;2023-08-31T04:24:11;95744.06;;;15.25;100.00
11621;BME280;5866;49.094;11.900;2023-08-31T04:26:39;95755.13;;;15.22;100.00
11621;BME280;5866;49.094;11.900;2023-08-31T04:29:07;95756.94;;;15.01;100.00
11621;BME280;5866;49.094;11.900;2023-08-31T04:31:35;95759.31;;;14.83;100.00
11621;BME280;5866;49.094;11.900;2023-08-31T04:34:04;95765.91;;;14.40;100.00
11621;BME280;5866;49.094;11.900;2023-08-31T04:36:32;95777.41;;;14.41;100.00
11621;BME280;5866;49.094;11.900;2023-08-31T04:38:59;95769.66;;;14.52;100.00
11621;BME280;5866;49.094;11.900;2023-08-31T04:41:27;95762.84;;;14.43;100.00
11621;BME280;5866;49.094;11.900;2023-08-31T04:43:54;95765.97;;;14.53;100.00
11621;BME280;5866;49.094;11.900;2023-08-31T04:46:22;95773.91;;;14.87;100.00
11621;BME280;5866;49.094;11.900;2023-08-31T04:48:51;95765.75;;;14.89;100.00
11621;BME280;5866;49.094;11.900;2023-08-31T04:51:32;95782.16;;;14.45;100.00
11621;BME280;5866;49.094;11.900;2023-08-31T04:54:00;95791.25;;;14.02;100.00
11621;BME280;5866;49.094;11.900;2023-08-31T04:56:30;95795.28;;;14.19;100.00
11621;BME280;5866;49.094;11.900;2023-08-31T04:58:58;95795.97;;;14.55;100.00
11621;BME280;5866;49.094;11.900;2023-08-31T05:01:26;95790.94;;;14.80;100.00
11621;BME280;5866;49.094;11.900;2023-08-31T05:03:55;95787.91;;;14.89;100.00
11621;BME280;5866;49.094;11.900;2023-08-31T05:06:22;95790.72;;;15.29;100.00
11621;BME280;5866;49.094;11.900;2023-08-31T05:08:50;95784.44;;;15.56;100.00
11621;BME280;5866;49.094;11.900;2023-08-31T05:11:18;95797.13;;;15.41;100.00
11621;BME280;5866;49.094;11.900;2023-08-31T05:13:46;95797.09;;;15.28;100.00
11621;BME280;5866;49.094;11.900;2023-08-31T05:16:14;95803.78;;;15.04;100.00
11621;BME280;5866;49.094;11.900;2023-08-31T05:18:42;95804.22;;;15.07;100.00
11621;BME280;5866;49.094;11.900;2023-08-31T05:21:11;95800.75;;;16.00;100.00
11621;BME280;5866;49.094;11.900;2023-08-31T05:23:38;95799.25;;;16.63;100.00
11621;BME280;5866;49.094;11.900;2023-08-31T05:26:06;95807.13;;;16.19;100.00
11621;BME280;5866;49.094;11.900;2023-08-31T05:28:34;95796.53;;;16.69;100.00
11621;BME280;5866;49.094;11.900;2023-08-31T05:31:01;95808.75;;;16.52;100.00
11621;BME280;5866;49.094;11.900;2023-08-31T05:33:30;95815.97;;;16.13;100.00
11621;BME280;5866;49.094;11.900;2023-08-31T05:36:01;95817.75;;;15.60;100.00
11621;BME280;5866;49.094;11.900;2023-08-31T05:38:31;95819.81;;;15.51;100.00
11621;BME280;5866;49.094;11.900;2023-08-31T05:41:06;95824.38;;;15.77;100.00
11621;BME280;5866;49.094;11.900;2023-08-31T05:43:34;95832.22;;;16.37;100.00
11621;BME280;5866;49.094;11.900;2023-08-31T05:46:02;95831.97;;;16.78;100.00
11621;BME280;5866;49.094;11.900;2023-08-31T05:48:30;95834.19;;;17.01;100.00
11621;BME280;5866;49.094;11.900;2023-08-31T05:50:57;95838.31;;;17.54;100.00
11621;BME280;5866;49.094;11.900;2023-08-31T05:53:25;95838.34;;;16.90;100.00
11621;BME280;5866;49.094;11.900;2023-08-31T05:55:58;95834.13;;;17.14;100.00
11621;BME280;5866;49.094;11.900;2023-08-31T05:58:31;95828.94;;;17.70;100.00
11621;BME280;5866;49.094;11.900;2023-08-31T06:00:59;95824.13;;;18.09;100.00
11621;BME280;5866;49.094;11.900;2023-08-31T06:03:27;95822.31;;;18.28;100.00
11621;BME280;5866;49.094;11.900;2023-08-31T06:05:55;95818.44;;;18.49;100.00
11621;BME280;5866;49.094;11.900;2023-08-31T06:08:23;95814.34;;;19.43;100.00
11621;BME280;5866;49.094;11.900;2023-08-31T06:10:51;95822.22;;;17.85;100.00
11621;BME280;5866;49.094;11.900;2023-08-31T06:13:20;95828.88;;;16.81;100.00
11621;BME280;5866;49.094;11.900;2023-08-31T06:15:48;95844.16;;;16.61;100.00
11621;BME280;5866;49.094;11.900;2023-08-31T06:18:15;95852.78;;;15.91;100.00
11621;BME280;5866;49.094;11.900;2023-08-31T06:20:43;95865.56;;;16.02;100.00
11621;BME280;5866;49.094;11.900;2023-08-31T06:23:10;95873.69;;;15.55;100.00
11621;BME280;5866;49.094;11.900;2023-08-31T06:25:39;95872.03;;;14.72;100.00
11621;BME280;5866;49.094;11.900;2023-08-31T06:28:06;95874.06;;;15.45;100.00
11621;BME280;5866;49.094;11.900;2023-08-31T06:30:38;95865.44;;;15.50;100.00
11621;BME280;5866;49.094;11.900;2023-08-31T06:33:06;95882.00;;;15.99;100.00
11621;BME280;5866;49.094;11.900;2023-08-31T06:35:34;95878.28;;;15.87;100.00
11621;BME280;5866;49.094;11.900;2023-08-31T06:38:02;95870.09;;;16.34;100.00
11621;BME280;5866;49.094;11.900;2023-08-31T06:40:30;95871.56;;;16.56;100.00
11621;BME280;5866;49.094;11.900;2023-08-31T06:42:57;95873.66;;;17.82;100.00
11621;BME280;5866;49.094;11.900;2023-08-31T06:45:25;95870.03;;;19.54;100.00
11621;BME280;5866;49.094;11.900;2023-08-31T06:47:54;95869.38;;;20.48;89.69
11621;BME280;5866;49.094;11.900;2023-08-31T06:50:22;95870.78;;;20.97;81.47
11621;BME280;5866;49.094;11.900;2023-08-31T06:52:49;95880.91;;;21.76;78.87
11621;BME280;5866;49.094;11.900;2023-08-31T06:55:17;95881.47;;;22.18;72.79
11621;BME280;5866;49.094;11.900;2023-08-31T06:57:45;95889.66;;;22.39;71.35
11621;BME280;5866;49.094;11.900;2023-08-31T07:00:13;95881.16;;;20.35;76.49
11621;BME280;5866;49.094;11.900;2023-08-31T07:02:41;95882.00;;;20.36;81.14
11621;BME280;5866;49.094;11.900;2023-08-31T07:05:11;95877.75;;;21.56;74.32
11621;BME280;5866;49.094;11.900;2023-08-31T07:07:38;95881.91;;;20.89;73.22
11621;BME280;5866;49.094;11.900;2023-08-31T07:10:07;95885.75;;;18.78;95.64
11621;BME280;5866;49.094;11.900;2023-08-31T07:12:34;95892.09;;;19.27;88.40
11621;BME280;5866;49.094;11.900;2023-08-31T07:15:02;95884.56;;;19.35;89.07
11621;BME280;5866;49.094;11.900;2023-08-31T07:17:30;95886.63;;;19.33;93.90
11621;BME280;5866;49.094;11.900;2023-08-31T07:19:58;95884.09;;;19.56;88.35
11621;BME280;5866;49.094;11.900;2023-08-31T07:22:27;95885.41;;;18.93;91.36
11621;BME280;5866;49.094;11.900;2023-08-31T07:24:54;95877.22;;;18.63;94.86
11621;BME280;5866;49.094;11.900;2023-08-31T07:27:22;95888.44;;;18.54;98.40
11621;BME280;5866;49.094;11.900;2023-08-31T07:29:50;95888.84;;;18.26;100.00
11621;BME280;5866;49.094;11.900;2023-08-31T07:32:17;95883.78;;;17.80;100.00
11621;BME280;5866;49.094;11.900;2023-08-31T07:34:45;95888.94;;;17.18;100.00
11621;BME280;5866;49.094;11.900;2023-08-31T07:37:12;95894.28;;;17.24;100.00
11621;BME280;5866;49.094;11.900;2023-08-31T07:39:41;95914.13;;;17.17;100.00
11621;BME280;5866;49.094;11.900;2023-08-31T07:42:09;95906.31;;;19.09;100.00
11621;BME280;5866;49.094;11.900;2023-08-31T07:44:36;95924.13;;;17.98;95.83
11621;BME280;5866;49.094;11.900;2023-08-31T07:47:04;95928.16;;;17.06;100.00
11621;BME280;5866;49.094;11.900;2023-08-31T07:49:32;95926.03;;;18.22;100.00
11621;BME280;5866;49.094;11.900;2023-08-31T07:51:59;95938.88;;;19.62;94.62
11621;BME280;5866;49.094;11.900;2023-08-31T07:54:27;95923.38;;;19.75;81.62
11621;BME280;5866;49.094;11.900;2023-08-31T07:56:56;95943.28;;;19.74;79.72
11621;BME280;5866;49.094;11.900;2023-08-31T07:59:23;95922.50;;;20.94;73.38
11621;BME280;5866;49.094;11.900;2023-08-31T08:01:51;95913.75;;;22.24;66.65
11621;BME280;5866;49.094;11.900;2023-08-31T08:04:19;95907.19;;;22.81;60.91
11621;BME280;5866;49.094;11.900;2023-08-31T08:06:49;95911.47;;;21.42;64.26
11621;BME280;5866;49.094;11.900;2023-08-31T08:09:17;95924.44;;;22.47;60.80
11621;BME280;5866;49.094;11.900;2023-08-31T08:11:44;95923.81;;;23.40;57.02
11621;BME280;5866;49.094;11.900;2023-08-31T08:14:13;95923.72;;;24.38;55.35
11621;BME280;5866;49.094;11.900;2023-08-31T08:16:41;95944.44;;;25.02;53.65
11621;BME280;5866;49.094;11.900;2023-08-31T08:19:09;95945.16;;;23.36;55.24
11621;BME280;5866;49.094;11.900;2023-08-31T08:21:37;95940.56;;;23.37;55.90
11621;BME280;5866;49.094;11.900;2023-08-31T08:24:05;95943.94;;;22.49;56.78
11621;BME280;5866;49.094;11.900;2023-08-31T08:26:32;95940.88;;;21.78;60.18
11621;BME280;5866;49.094;11.900;2023-08-31T08:29:00;95943.38;;;21.56;65.08
11621;BME280;5866;49.094;11.900;2023-08-31T08:31:30;95949.34;;;22.49;61.69
11621;BME280;5866;49.094;11.900;2023-08-31T08:33:58;95951.50;;;21.21;62.47
11621;BME280;5866;49.094;11.900;2023-08-31T08:36:26;95952.88;;;20.18;69.84
11621;BME280;5866;49.094;11.900;2023-08-31T08:38:54;95953.50;;;20.20;74.31
11621;BME280;5866;49.094;11.900;2023-08-31T08:41:23;95954.81;;;21.98;64.98
11621;BME280;5866;49.094;11.900;2023-08-31T08:43:51;95949.66;;;21.96;67.66
11621;BME280;5866;49.094;11.900;2023-08-31T08:46:19;95953.25;;;22.13;62.52
11621;BME280;5866;49.094;11.900;2023-08-31T08:48:48;95951.31;;;20.29;72.80
11621;BME280;5866;49.094;11.900;2023-08-31T08:51:16;95954.88;;;19.75;72.09
11621;BME280;5866;49.094;11.900;2023-08-31T08:53:44;95942.72;;;17.93;69.94
11621;BME280;5866;49.094;11.900;2023-08-31T08:56:13;95951.56;;;17.50;85.07
11621;BME280;5866;49.094;11.900;2023-08-31T08:58:41;95949.94;;;19.11;84.24
11621;BME280;5866;49.094;11.900;2023-08-31T09:01:08;95967.59;;;19.68;75.85
11621;BME280;5866;49.094;11.900;2023-08-31T09:03:36;95969.53;;;19.61;75.69
11621;BME280;5866;49.094;11.900;2023-08-31T09:06:05;95966.63;;;19.62;66.21
11621;BME280;5866;49.094;11.900;2023-08-31T09:08:34;95970.28;;;19.25;67.60
11621;BME280;5866;49.094;11.900;2023-08-31T09:11:03;95959.53;;;19.25;69.30
11621;BME280;5866;49.094;11.900;2023-08-31T09:13:32;95969.94;;;18.72;76.38
11621;BME280;5866;49.094;11.900;2023-08-31T09:16:00;95974.63;;;18.52;73.54
11621;BME280;5866;49.094;11.900;2023-08-31T09:18:29;95971.97;;;18.08;79.66
11621;BME280;5866;49.094;11.900;2023-08-31T09:20:59;95970.91;;;18.78;85.17
11621;BME280;5866;49.094;11.900;2023-08-31T09:23:28;95975.47;;;19.99;74.50
11621;BME280;5866;49.094;11.900;2023-08-31T09:25:56;95965.81;;;20.28;69.77
11621;BME280;5866;49.094;11.900;2023-08-31T09:28:25;95976.47;;;19.87;67.71
11621;BME280;5866;49.094;11.900;2023-08-31T09:31:04;95982.88;;;19.07;66.74
11621;BME280;5866;49.094;11.900;2023-08-31T09:33:34;95988.28;;;18.51;71.73
11621;BME280;5866;49.094;11.900;2023-08-31T09:36:02;95991.19;;;18.43;80.42
11621;BME280;5866;49.094;11.900;2023-08-31T09:38:31;95999.59;;;18.84;76.54
11621;BME280;5866;49.094;11.900;2023-08-31T09:41:04;95991.88;;;19.98;73.44
11621;BME280;5866;49.094;11.900;2023-08-31T09:43:32;95993.91;;;20.50;66.70
11621;BME280;5866;49.094;11.900;2023-08-31T09:46:00;95985.84;;;20.14;63.39
11621;BME280;5866;49.094;11.900;2023-08-31T09:48:30;95996.97;;;19.88;66.77
11621;BME280;5866;49.094;11.900;2023-08-31T09:50:58;95994.41;;;19.93;65.92
11621;BME280;5866;49.094;11.900;2023-08-31T09:53:29;96000.53;;;19.81;67.61
11621;BME280;5866;49.094;11.900;2023-08-31T09:55:58;95990.38;;;19.65;66.72
11621;BME280;5866;49.094;11.900;2023-08-31T09:58:27;95988.13;;;19.99;66.33
11621;BME280;5866;49.094;11.900;2023-08-31T10:00:56;95995.31;;;20.23;62.62
11621;BME280;5866;49.094;11.900;2023-08-31T10:03:25;95987.63;;;21.44;60.70
11621;BME280;5866;49.094;11.900;2023-08-31T10:05:54;95990.31;;;22.58;57.09
11621;BME280;5866;49.094;11.900;2023-08-31T10:08:23;95989.28;;;22.19;56.62
11621;BME280;5866;49.094;11.900;2023-08-31T10:10:53;95993.81;;;21.90;54.63
11621;BME280;5866;49.094;11.900;2023-08-31T10:13:22;95999.00;;;21.46;55.70
11621;BME280;5866;49.094;11.900;2023-08-31T10:15:52;95991.84;;;21.86;54.83
11621;BME280;5866;49.094;11.900;2023-08-31T10:18:20;95994.13;;;21.01;54.63
11621;BME280;5866;49.094;11.900;2023-08-31T10:20:48;95989.34;;;21.03;55.07
11621;BME280;5866;49.094;11.900;2023-08-31T10:23:16;95998.09;;;20.46;60.22
11621;BME280;5866;49.094;11.900;2023-08-31T10:26:00;95990.41;;;21.02;59.90
11621;BME280;5866;49.094;11.900;2023-08-31T10:28:29;95981.47;;;20.49;57.78
11621;BME280;5866;49.094;11.900;2023-08-31T10:31:00;95992.25;;;20.90;55.97
11621;BME280;5866;49.094;11.900;2023-08-31T10:33:31;95989.50;;;21.43;56.16
11621;BME280;5866;49.094;11.900;2023-08-31T10:35:59;95986.59;;;22.19;53.88
11621;BME280;5866;49.094;11.900;2023-08-31T10:38:28;95990.34;;;22.18;57.00
11621;BME280;5866;49.094;11.900;2023-08-31T10:41:17;95989.03;;;22.21;53.05
11621;BME280;5866;49.094;11.900;2023-08-31T10:43:51;95986.25;;;22.04;54.24
11621;BME280;5866;49.094;11.900;2023-08-31T10:46:25;95972.09;;;22.25;52.55
11621;BME280;5866;49.094;11.900;2023-08-31T10:48:55;95982.00;;;21.33;55.81
11621;BME280;5866;49.094;11.900;2023-08-31T10:51:24;95985.38;;;21.87;54.40
11621;BME280;5866;49.094;11.900;2023-08-31T10:53:52;95985.63;;;23.15;53.34
11621;BME280;5866;49.094;11.900;2023-08-31T10:56:19;95989.44;;;23.47;53.15
11621;BME280;5866;49.094;11.900;2023-08-31T10:58:59;95982.44;;;21.07;54.47
11621;BME280;5866;49.094;11.900;2023-08-31T11:01:54;95986.47;;;20.87;57.39
11621;BME280;5866;49.094;11.900;2023-08-31T11:04:23;95979.50;;;21.78;56.12
11621;BME280;5866;49.094;11.900;2023-08-31T11:07:13;95982.03;;;23.26;51.10
11621;BME280;5866;49.094;11.900;2023-08-31T11:09:41;95982.84;;;22.93;50.31
11621;BME280;5866;49.094;11.900;2023-08-31T11:12:10;95979.16;;;22.54;53.71
11621;BME280;5866;49.094;11.900;2023-08-31T11:14:39;95975.31;;;22.22;54.76
11621;BME280;5866;49.094;11.900;2023-08-31T11:17:07;95972.69;;;21.99;52.59
11621;BME280;5866;49.094;11.900;2023-08-31T11:19:35;95966.00;;;22.58;48.66
11621;BME280;5866;49.094;11.900;2023-08-31T11:22:03;95970.91;;;22.89;51.59
11621;BME280;5866;49.094;11.900;2023-08-31T11:24:32;95971.28;;;23.31;46.01
11621;BME280;5866;49.094;11.900;2023-08-31T11:27:00;95973.66;;;21.12;47.13
11621;BME280;5866;49.094;11.900;2023-08-31T11:29:30;95981.75;;;21.35;45.56
11621;BME280;5866;49.094;11.900;2023-08-31T11:31:59;95967.53;;;22.26;45.67
11621;BME280;5866;49.094;11.900;2023-08-31T11:34:27;95985.06;;;21.25;46.34
11621;BME280;5866;49.094;11.900;2023-08-31T11:36:54;95978.75;;;20.49;49.96
11621;BME280;5866;49.094;11.900;2023-08-31T11:39:22;95974.63;;;20.76;50.07
11621;BME280;5866;49.094;11.900;2023-08-31T11:41:51;95987.56;;;20.97;46.21
11621;BME280;5866;49.094;11.900;2023-08-31T11:44:19;95970.69;;;21.60;46.06
11621;BME280;5866;49.094;11.900;2023-08-31T11:46:47;95977.38;;;22.03;46.62
11621;BME280;5866;49.094;11.900;2023-08-31T11:49:18;95978.84;;;22.39;45.08
11621;BME280;5866;49.094;11.900;2023-08-31T11:51:46;95976.13;;;21.36;44.60
11621;BME280;5866;49.094;11.900;2023-08-31T11:54:17;95979.31;;;20.69;48.05
11621;BME280;5866;49.094;11.900;2023-08-31T11:56:46;95978.81;;;21.36;47.55
11621;BME280;5866;49.094;11.900;2023-08-31T11:59:16;95982.06;;;21.96;44.49
11621;BME280;5866;49.094;11.900;2023-08-31T12:01:46;95980.69;;;22.50;45.84
11621;BME280;5866;49.094;11.900;2023-08-31T12:04:15;95970.38;;;22.75;43.86
11621;BME280;5866;49.094;11.900;2023-08-31T12:06:47;95973.66;;;23.11;42.27
11621;BME280;5866;49.094;11.900;2023-08-31T12:09:15;95966.81;;;23.75;42.20
11621;BME280;5866;49.094;11.900;2023-08-31T12:11:49;95976.38;;;23.82;41.77
11621;BME280;5866;49.094;11.900;2023-08-31T12:14:20;95965.06;;;23.47;43.04
11621;BME280;5866;49.094;11.900;2023-08-31T12:16:49;95966.13;;;21.95;44.28
11621;BME280;5866;49.094;11.900;2023-08-31T12:19:17;95980.50;;;19.41;49.38
11621;BME280;5866;49.094;11.900;2023-08-31T12:21:47;95985.16;;;17.72;51.48
11621;BME280;5866;49.094;11.900;2023-08-31T12:24:14;95992.69;;;19.19;52.66
11621;BME280;5866;49.094;11.900;2023-08-31T12:26:43;95973.38;;;19.04;50.17
11621;BME280;5866;49.094;11.900;2023-08-31T12:29:11;95977.53;;;19.00;51.25
11621;BME280;5866;49.094;11.900;2023-08-31T12:31:38;95983.47;;;20.06;50.61
11621;BME280;5866;49.094;11.900;2023-08-31T12:34:06;95984.03;;;20.85;48.20
11621;BME280;5866;49.094;11.900;2023-08-31T12:36:34;95988.69;;;20.78;45.76
11621;BME280;5866;49.094;11.900;2023-08-31T12:39:04;95992.16;;;19.71;48.47
11621;BME280;5866;49.094;11.900;2023-08-31T12:41:34;95982.97;;;19.43;48.89
11621;BME280;5866;49.094;11.900;2023-08-31T12:44:02;95992.69;;;20.87;48.05
11621;BME280;5866;49.094;11.900;2023-08-31T12:46:31;95980.94;;;20.29;47.42
11621;BME280;5866;49.094;11.900;2023-08-31T12:48:59;95997.78;;;20.54;48.06
11621;BME280;5866;49.094;11.900;2023-08-31T12:51:28;95989.50;;;20.19;47.45
11621;BME280;5866;49.094;11.900;2023-08-31T12:53:55;95993.59;;;20.70;48.97
11621;BME280;5866;49.094;11.900;2023-08-31T12:56:24;95986.13;;;22.22;46.52
11621;BME280;5866;49.094;11.900;2023-08-31T12:58:53;95979.88;;;22.22;44.51
11621;BME280;5866;49.094;11.900;2023-08-31T13:01:21;95986.81;;;23.52;42.96
11621;BME280;5866;49.094;11.900;2023-08-31T13:03:50;95987.09;;;23.72;42.61